sensor_id;sensor_type;location;lat;lon;timestamp;pressure;altitude;pressure_sealevel;temperature;humidity
77192;BME280;66172;48.526;8.078;2023-06-10T00:02:08;98999.78;;;20.32;49.89
77192;BME280;66172;48.526;8.078;2023-06-10T00:04:34;99000.47;;;20.40;49.52
77192;BME280;66172;48.526;8.078;2023-06-10T00:07:05;98998.44;;;20.44;49.02
77192;BME280;66172;48.526;8.078;2023-06-10T00:09:37;99004.63;;;20.21;49.68
77192;BME280;66172;48.526;8.078;2023-06-10T00:12:05;99011.50;;;20.06;50.65
77192;BME280;66172;48.526;8.078;2023-06-10T00:14:33;98999.25;;;20.07;50.76
77192;BME280;66172;48.526;8.078;2023-06-10T00:16:59;99004.88;;;20.00;50.61
77192;BME280;66172;48.526;8.078;2023-06-10T00:19:25;99002.44;;;19.72;51.76
77192;BME280;66172;48.526;8.078;2023-06-10T00:21:56;99002.03;;;19.73;51.60
77192;BME280;66172;48.526;8.078;2023-06-10T00:24:22;98997.44;;;19.60;52.10
77192;BME280;66172;48.526;8.078;2023-06-10T00:26:48;99000.41;;;19.35;53.11
77192;BME280;66172;48.526;8.078;2023-06-10T00:29:14;99004.00;;;19.25;53.19
77192;BME280;66172;48.526;8.078;2023-06-10T00:31:40;98999.50;;;18.97;53.88
77192;BME280;66172;48.526;8.078;2023-06-10T00:34:07;99006.28;;;18.89;53.56
77192;BME280;66172;48.526;8.078;2023-06-10T00:36:33;98997.50;;;19.05;53.06
77192;BME280;66172;48.526;8.078;2023-06-10T00:38:59;99001.22;;;18.80;53.92
77192;BME280;66172;48.526;8.078;2023-06-10T00:41:25;99005.25;;;18.62;54.78
77192;BME280;66172;48.526;8.078;2023-06-10T00:43:53;99001.34;;;18.63;54.65
77192;BME280;66172;48.526;8.078;2023-06-10T00:46:20;98991.97;;;18.46;55.03
77192;BME280;66172;48.526;8.078;2023-06-10T00:48:46;98988.41;;;18.53;54.77
77192;BME280;66172;48.526;8.078;2023-06-10T00:51:12;98982.91;;;18.53;54.93
77192;BME280;66172;48.526;8.078;2023-06-10T00:53:41;98996.38;;;18.33;55.69
77192;BME280;66172;48.526;8.078;2023-06-10T00:56:08;98992.81;;;18.36;55.59
77192;BME280;66172;48.526;8.078;2023-06-10T00:58:34;98993.13;;;18.45;55.23
77192;BME280;66172;48.526;8.078;2023-06-10T01:01:01;99000.19;;;18.60;54.91
77192;BME280;66172;48.526;8.078;2023-06-10T01:03:27;99006.03;;;18.62;55.24
77192;BME280;66172;48.526;8.078;2023-06-10T01:05:59;99000.09;;;18.71;54.60
77192;BME280;66172;48.526;8.078;2023-06-10T01:08:50;99011.16;;;18.67;54.35
77192;BME280;66172;48.526;8.078;2023-06-10T01:11:21;99002.13;;;18.63;55.45
77192;BME280;66172;48.526;8.078;2023-06-10T01:13:50;99012.41;;;18.52;55.63
77192;BME280;66172;48.526;8.078;2023-06-10T01:16:21;99013.19;;;18.56;54.84
77192;BME280;66172;48.526;8.078;2023-06-10T01:18:47;99002.56;;;18.47;55.19
77192;BME280;66172;48.526;8.078;2023-06-10T01:21:20;99000.31;;;18.25;56.09
77192;BME280;66172;48.526;8.078;2023-06-10T01:23:47;99009.00;;;18.16;56.17
77192;BME280;66172;48.526;8.078;2023-06-10T01:26:13;99001.56;;;18.13;56.61
77192;BME280;66172;48.526;8.078;2023-06-10T01:28:52;99004.34;;;17.99;57.12
77192;BME280;66172;48.526;8.078;2023-06-10T01:31:43;99002.06;;;17.83;57.46
77192;BME280;66172;48.526;8.078;2023-06-10T01:34:14;99004.06;;;17.72;57.68
77192;BME280;66172;48.526;8.078;2023-06-10T01:36:44;99002.09;;;17.69;57.36
77192;BME280;66172;48.526;8.078;2023-06-10T01:39:11;98999.34;;;17.73;57.30
77192;BME280;66172;48.526;8.078;2023-06-10T01:41:38;99003.66;;;17.67;57.97
77192;BME280;66172;48.526;8.078;2023-06-10T01:44:05;99013.88;;;17.59;57.93
77192;BME280;66172;48.526;8.078;2023-06-10T01:46:31;99009.16;;;17.53;58.39
77192;BME280;66172;48.526;8.078;2023-06-10T01:48:57;99018.19;;;17.46;58.60
77192;BME280;66172;48.526;8.078;2023-06-10T01:51:23;99012.72;;;17.32;58.84
77192;BME280;66172;48.526;8.078;2023-06-10T01:53:49;99019.78;;;17.33;59.26
77192;BME280;66172;48.526;8.078;2023-06-10T01:56:14;99017.81;;;17.23;59.60
77192;BME280;66172;48.526;8.078;2023-06-10T01:58:47;99013.13;;;17.20;59.70
77192;BME280;66172;48.526;8.078;2023-06-10T02:01:13;99013.13;;;17.13;59.68
77192;BME280;66172;48.526;8.078;2023-06-10T02:03:39;99016.66;;;17.31;59.09
77192;BME280;66172;48.526;8.078;2023-06-10T02:06:05;99019.00;;;17.22;59.58
77192;BME280;66172;48.526;8.078;2023-06-10T02:08:31;99016.25;;;17.15;59.66
77192;BME280;66172;48.526;8.078;2023-06-10T02:10:57;99020.16;;;17.38;58.68
77192;BME280;66172;48.526;8.078;2023-06-10T02:13:23;99019.38;;;17.63;57.97
77192;BME280;66172;48.526;8.078;2023-06-10T02:15:49;99014.66;;;17.63;57.76
77192;BME280;66172;48.526;8.078;2023-06-10T02:18:15;99016.22;;;17.50;58.21
77192;BME280;66172;48.526;8.078;2023-06-10T02:20:41;99027.66;;;17.38;58.58
77192;BME280;66172;48.526;8.078;2023-06-10T02:23:07;99024.50;;;17.39;58.71
77192;BME280;66172;48.526;8.078;2023-06-10T02:25:33;99026.88;;;17.62;58.04
77192;BME280;66172;48.526;8.078;2023-06-10T02:27:58;99030.78;;;17.58;58.27
77192;BME280;66172;48.526;8.078;2023-06-10T02:30:25;99026.44;;;17.49;58.43
77192;BME280;66172;48.526;8.078;2023-06-10T02:32:50;99030.38;;;17.63;57.75
77192;BME280;66172;48.526;8.078;2023-06-10T02:35:18;99024.50;;;17.61;58.08
77192;BME280;66172;48.526;8.078;2023-06-10T02:37:44;99028.81;;;17.69;57.70
77192;BME280;66172;48.526;8.078;2023-06-10T02:40:11;99044.09;;;17.70;57.75
77192;BME280;66172;48.526;8.078;2023-06-10T02:42:37;99039.78;;;17.76;57.72
77192;BME280;66172;48.526;8.078;2023-06-10T02:45:03;99041.34;;;17.84;57.70
77192;BME280;66172;48.526;8.078;2023-06-10T02:47:30;99039.78;;;17.79;57.12
77192;BME280;66172;48.526;8.078;2023-06-10T02:49:55;99040.59;;;17.73;57.72
77192;BME280;66172;48.526;8.078;2023-06-10T02:52:21;99040.56;;;17.83;57.37
77192;BME280;66172;48.526;8.078;2023-06-10T02:54:48;99046.44;;;17.92;57.02
77192;BME280;66172;48.526;8.078;2023-06-10T02:57:14;99040.53;;;17.94;56.95
77192;BME280;66172;48.526;8.078;2023-06-10T02:59:40;99044.47;;;17.89;57.04
77192;BME280;66172;48.526;8.078;2023-06-10T03:02:06;99037.84;;;17.76;57.56
77192;BME280;66172;48.526;8.078;2023-06-10T03:04:32;99038.25;;;17.57;58.63
77192;BME280;66172;48.526;8.078;2023-06-10T03:06:58;99045.69;;;17.46;58.86
77192;BME280;66172;48.526;8.078;2023-06-10T03:09:29;99057.47;;;17.29;59.46
77192;BME280;66172;48.526;8.078;2023-06-10T03:11:55;99056.31;;;17.30;59.76
77192;BME280;66172;48.526;8.078;2023-06-10T03:14:21;99055.88;;;17.14;60.59
77192;BME280;66172;48.526;8.078;2023-06-10T03:16:47;99057.88;;;17.06;60.42
77192;BME280;66172;48.526;8.078;2023-06-10T03:19:13;99061.38;;;16.99;60.47
77192;BME280;66172;48.526;8.078;2023-06-10T03:21:38;99052.75;;;17.01;60.50
77192;BME280;66172;48.526;8.078;2023-06-10T03:24:07;99057.06;;;17.06;60.40
77192;BME280;66172;48.526;8.078;2023-06-10T03:26:33;99059.44;;;17.21;59.95
77192;BME280;66172;48.526;8.078;2023-06-10T03:28:58;99073.13;;;17.00;60.62
77192;BME280;66172;48.526;8.078;2023-06-10T03:31:24;99068.41;;;16.86;61.15
77192;BME280;66172;48.526;8.078;2023-06-10T03:33:50;99072.72;;;16.80;61.50
77192;BME280;66172;48.526;8.078;2023-06-10T03:36:16;99072.72;;;16.80;61.92
77192;BME280;66172;48.526;8.078;2023-06-10T03:38:42;99081.78;;;16.88;61.52
77192;BME280;66172;48.526;8.078;2023-06-10T03:41:08;99071.97;;;17.08;60.66
77192;BME280;66172;48.526;8.078;2023-06-10T03:43:34;99075.53;;;17.16;60.61
77192;BME280;66172;48.526;8.078;2023-06-10T03:46:00;99075.91;;;17.25;60.34
77192;BME280;66172;48.526;8.078;2023-06-10T03:48:26;99078.66;;;17.21;60.30
77192;BME280;66172;48.526;8.078;2023-06-10T03:50:51;99077.50;;;17.15;60.51
77192;BME280;66172;48.526;8.078;2023-06-10T03:53:17;99084.56;;;17.34;60.14
77192;BME280;66172;48.526;8.078;2023-06-10T03:55:43;99084.59;;;17.37;59.76
77192;BME280;66172;48.526;8.078;2023-06-10T03:58:10;99087.72;;;17.50;59.54
77192;BME280;66172;48.526;8.078;2023-06-10T04:00:38;99089.31;;;17.62;59.23
77192;BME280;66172;48.526;8.078;2023-06-10T04:03:08;99097.88;;;17.07;61.11
77192;BME280;66172;48.526;8.078;2023-06-10T04:05:35;99097.88;;;17.07;61.11
77192;BME280;66172;48.526;8.078;2023-06-10T04:08:01;99099.44;;;16.90;61.83
77192;BME280;66172;48.526;8.078;2023-06-10T04:10:27;99098.63;;;16.90;62.07
77192;BME280;66172;48.526;8.078;2023-06-10T04:12:53;99107.66;;;16.87;62.18
77192;BME280;66172;48.526;8.078;2023-06-10T04:15:19;99106.06;;;16.86;62.19
77192;BME280;66172;48.526;8.078;2023-06-10T04:17:45;99097.81;;;16.79;62.65
77192;BME280;66172;48.526;8.078;2023-06-10T04:20:11;99104.06;;;16.72;62.84
77192;BME280;66172;48.526;8.078;2023-06-10T04:22:37;99108.41;;;16.77;62.73
77192;BME280;66172;48.526;8.078;2023-06-10T04:25:03;99106.41;;;16.60;63.65
77192;BME280;66172;48.526;8.078;2023-06-10T04:27:29;99103.56;;;16.45;64.11
77192;BME280;66172;48.526;8.078;2023-06-10T04:29:55;99110.25;;;16.55;64.12
77192;BME280;66172;48.526;8.078;2023-06-10T04:32:21;99105.22;;;16.64;63.53
77192;BME280;66172;48.526;8.078;2023-06-10T04:34:47;99117.06;;;16.82;63.11
77192;BME280;66172;48.526;8.078;2023-06-10T04:37:12;99101.03;;;16.98;62.66
77192;BME280;66172;48.526;8.078;2023-06-10T04:39:38;99104.59;;;17.13;62.16
77192;BME280;66172;48.526;8.078;2023-06-10T04:42:04;99116.28;;;16.89;63.10
77192;BME280;66172;48.526;8.078;2023-06-10T04:44:31;99119.47;;;17.09;62.55
77192;BME280;66172;48.526;8.078;2023-06-10T04:46:57;99117.94;;;17.43;61.66
77192;BME280;66172;48.526;8.078;2023-06-10T04:49:23;99115.56;;;17.13;62.68
77192;BME280;66172;48.526;8.078;2023-06-10T04:51:48;99118.63;;;16.87;63.64
77192;BME280;66172;48.526;8.078;2023-06-10T04:54:15;99121.41;;;16.90;63.86
77192;BME280;66172;48.526;8.078;2023-06-10T04:56:41;99117.47;;;16.91;64.19
77192;BME280;66172;48.526;8.078;2023-06-10T04:59:07;99119.50;;;17.30;63.33
77192;BME280;66172;48.526;8.078;2023-06-10T05:01:33;99120.28;;;18.22;60.40
77192;BME280;66172;48.526;8.078;2023-06-10T05:03:59;99120.28;;;19.13;57.77
77192;BME280;66172;48.526;8.078;2023-06-10T05:06:25;99123.06;;;20.12;54.88
77192;BME280;66172;48.526;8.078;2023-06-10T05:08:50;99120.66;;;21.16;51.94
77192;BME280;66172;48.526;8.078;2023-06-10T05:11:16;99122.75;;;20.74;52.86
77192;BME280;66172;48.526;8.078;2023-06-10T05:13:42;99125.41;;;21.42;51.35
77192;BME280;66172;48.526;8.078;2023-06-10T05:16:09;99127.41;;;21.11;51.42
77192;BME280;66172;48.526;8.078;2023-06-10T05:18:35;99128.06;;;20.62;52.67
77192;BME280;66172;48.526;8.078;2023-06-10T05:21:01;99132.19;;;21.61;50.26
77192;BME280;66172;48.526;8.078;2023-06-10T05:23:28;99129.66;;;22.20;48.72
77192;BME280;66172;48.526;8.078;2023-06-10T05:25:54;99116.16;;;23.17;46.75
77192;BME280;66172;48.526;8.078;2023-06-10T05:28:20;99126.78;;;23.38;45.48
77192;BME280;66172;48.526;8.078;2023-06-10T05:30:46;99131.00;;;23.46;45.86
77192;BME280;66172;48.526;8.078;2023-06-10T05:33:12;99120.44;;;24.47;43.66
77192;BME280;66172;48.526;8.078;2023-06-10T05:35:37;99131.63;;;24.31;43.42
77192;BME280;66172;48.526;8.078;2023-06-10T05:38:03;99121.28;;;25.40;41.94
77192;BME280;66172;48.526;8.078;2023-06-10T05:40:29;99116.38;;;25.69;40.64
77192;BME280;66172;48.526;8.078;2023-06-10T05:42:55;99117.22;;;26.60;39.65
77192;BME280;66172;48.526;8.078;2023-06-10T05:45:21;99118.09;;;27.00;38.21
77192;BME280;66172;48.526;8.078;2023-06-10T05:47:47;99122.97;;;28.43;36.22
77192;BME280;66172;48.526;8.078;2023-06-10T05:50:13;99125.38;;;27.77;36.36
77192;BME280;66172;48.526;8.078;2023-06-10T05:52:39;99126.09;;;28.18;35.78
77192;BME280;66172;48.526;8.078;2023-06-10T05:55:06;99135.66;;;29.50;33.73
77192;BME280;66172;48.526;8.078;2023-06-10T05:57:32;99129.34;;;30.20;32.66
77192;BME280;66172;48.526;8.078;2023-06-10T05:59:59;99134.41;;;30.69;31.15
77192;BME280;66172;48.526;8.078;2023-06-10T06:02:25;99131.50;;;31.52;30.39
77192;BME280;66172;48.526;8.078;2023-06-10T06:04:51;99128.88;;;32.44;28.94
77192;BME280;66172;48.526;8.078;2023-06-10T06:07:16;99132.75;;;32.98;28.81
77192;BME280;66172;48.526;8.078;2023-06-10T06:09:42;99131.09;;;33.43;27.66
77192;BME280;66172;48.526;8.078;2023-06-10T06:12:08;99125.97;;;33.78;26.76
77192;BME280;66172;48.526;8.078;2023-06-10T06:14:38;99129.38;;;34.52;26.51
77192;BME280;66172;48.526;8.078;2023-06-10T06:17:07;99124.06;;;34.99;26.02
77192;BME280;66172;48.526;8.078;2023-06-10T06:19:33;99125.66;;;35.39;24.77
77192;BME280;66172;48.526;8.078;2023-06-10T06:21:59;99134.81;;;35.89;24.44
77192;BME280;66172;48.526;8.078;2023-06-10T06:24:25;99130.50;;;36.40;23.79
77192;BME280;66172;48.526;8.078;2023-06-10T06:26:51;99135.13;;;36.43;23.96
77192;BME280;66172;48.526;8.078;2023-06-10T06:29:17;99127.91;;;36.48;23.53
77192;BME280;66172;48.526;8.078;2023-06-10T06:31:43;99137.41;;;36.56;24.31
77192;BME280;66172;48.526;8.078;2023-06-10T06:34:10;99138.09;;;36.68;23.29
77192;BME280;66172;48.526;8.078;2023-06-10T06:36:36;99142.28;;;36.96;23.02
77192;BME280;66172;48.526;8.078;2023-06-10T06:39:02;99138.47;;;36.88;23.00
77192;BME280;66172;48.526;8.078;2023-06-10T06:41:28;99140.22;;;36.97;22.77
77192;BME280;66172;48.526;8.078;2023-06-10T06:43:54;99157.31;;;37.57;22.51
77192;BME280;66172;48.526;8.078;2023-06-10T06:46:21;99149.53;;;36.92;22.75
77192;BME280;66172;48.526;8.078;2023-06-10T06:48:48;99160.47;;;37.18;22.75
77192;BME280;66172;48.526;8.078;2023-06-10T06:51:14;99157.81;;;37.25;22.62
77192;BME280;66172;48.526;8.078;2023-06-10T06:53:40;99172.50;;;38.32;21.40
77192;BME280;66172;48.526;8.078;2023-06-10T06:56:11;99167.84;;;38.53;21.66
77192;BME280;66172;48.526;8.078;2023-06-10T06:58:37;99164.63;;;38.62;20.91
77192;BME280;66172;48.526;8.078;2023-06-10T07:01:04;99163.63;;;38.41;21.20
77192;BME280;66172;48.526;8.078;2023-06-10T07:03:30;99161.28;;;39.14;20.58
77192;BME280;66172;48.526;8.078;2023-06-10T07:05:56;99160.06;;;39.41;20.25
77192;BME280;66172;48.526;8.078;2023-06-10T07:08:21;99160.53;;;39.59;20.46
77192;BME280;66172;48.526;8.078;2023-06-10T07:10:47;99167.63;;;40.10;19.42
77192;BME280;66172;48.526;8.078;2023-06-10T07:13:14;99166.94;;;39.91;19.92
77192;BME280;66172;48.526;8.078;2023-06-10T07:15:40;99167.63;;;39.97;19.41
77192;BME280;66172;48.526;8.078;2023-06-10T07:18:06;99167.19;;;40.19;19.30
77192;BME280;66172;48.526;8.078;2023-06-10T07:20:32;99171.75;;;40.49;19.24
77192;BME280;66172;48.526;8.078;2023-06-10T07:22:58;99161.03;;;40.15;19.55
77192;BME280;66172;48.526;8.078;2023-06-10T07:25:24;99163.22;;;39.96;20.10
77192;BME280;66172;48.526;8.078;2023-06-10T07:27:50;99166.91;;;40.70;19.08
77192;BME280;66172;48.526;8.078;2023-06-10T07:30:16;99160.59;;;41.18;18.56
77192;BME280;66172;48.526;8.078;2023-06-10T07:32:42;99164.00;;;40.83;18.06
77192;BME280;66172;48.526;8.078;2023-06-10T07:35:09;99155.66;;;39.99;19.42
77192;BME280;66172;48.526;8.078;2023-06-10T07:37:38;99153.72;;;40.20;19.33
77192;BME280;66172;48.526;8.078;2023-06-10T07:40:05;99149.19;;;39.98;19.69
77192;BME280;66172;48.526;8.078;2023-06-10T07:42:35;99151.66;;;39.49;20.27
77192;BME280;66172;48.526;8.078;2023-06-10T07:45:02;99149.69;;;39.12;20.54
77192;BME280;66172;48.526;8.078;2023-06-10T07:47:29;99153.59;;;39.41;20.54
77192;BME280;66172;48.526;8.078;2023-06-10T07:49:55;99153.47;;;38.64;21.27
77192;BME280;66172;48.526;8.078;2023-06-10T07:52:21;99150.94;;;38.79;21.19
77192;BME280;66172;48.526;8.078;2023-06-10T07:54:47;99150.00;;;38.71;20.82
77192;BME280;66172;48.526;8.078;2023-06-10T07:57:13;99144.38;;;38.28;21.78
77192;BME280;66172;48.526;8.078;2023-06-10T07:59:39;99153.59;;;37.67;22.75
77192;BME280;66172;48.526;8.078;2023-06-10T08:02:05;99155.75;;;38.28;22.32
77192;BME280;66172;48.526;8.078;2023-06-10T08:04:32;99151.03;;;38.12;21.79
77192;BME280;66172;48.526;8.078;2023-06-10T08:07:00;99161.16;;;38.08;22.03
77192;BME280;66172;48.526;8.078;2023-06-10T08:09:26;99148.81;;;37.81;22.15
77192;BME280;66172;48.526;8.078;2023-06-10T08:11:52;99153.72;;;37.80;22.50
77192;BME280;66172;48.526;8.078;2023-06-10T08:14:18;99158.75;;;38.17;21.40
77192;BME280;66172;48.526;8.078;2023-06-10T08:16:44;99145.66;;;38.09;22.31
77192;BME280;66172;48.526;8.078;2023-06-10T08:19:10;99152.53;;;37.94;21.87
77192;BME280;66172;48.526;8.078;2023-06-10T08:21:36;99150.94;;;37.99;21.48
77192;BME280;66172;48.526;8.078;2023-06-10T08:24:06;99153.13;;;37.87;21.91
77192;BME280;66172;48.526;8.078;2023-06-10T08:26:32;99153.19;;;37.82;21.61
77192;BME280;66172;48.526;8.078;2023-06-10T08:28:58;99145.88;;;37.86;21.90
77192;BME280;66172;48.526;8.078;2023-06-10T08:31:24;99145.13;;;37.86;22.24
77192;BME280;66172;48.526;8.078;2023-06-10T08:33:50;99144.13;;;37.83;22.17
77192;BME280;66172;48.526;8.078;2023-06-10T08:36:16;99142.94;;;37.97;21.91
77192;BME280;66172;48.526;8.078;2023-06-10T08:38:41;99144.00;;;38.19;21.92
77192;BME280;66172;48.526;8.078;2023-06-10T08:41:09;99137.53;;;37.99;22.27
77192;BME280;66172;48.526;8.078;2023-06-10T08:44:12;99150.69;;;37.73;22.83
77192;BME280;66172;48.526;8.078;2023-06-10T08:46:45;99142.00;;;37.89;22.41
77192;BME280;66172;48.526;8.078;2023-06-10T08:49:17;99144.00;;;38.19;22.56
77192;BME280;66172;48.526;8.078;2023-06-10T08:51:45;99137.13;;;38.70;21.89
77192;BME280;66172;48.526;8.078;2023-06-10T08:54:31;99137.72;;;38.82;21.29
77192;BME280;66172;48.526;8.078;2023-06-10T08:57:01;99136.56;;;39.54;20.60
77192;BME280;66172;48.526;8.078;2023-06-10T08:59:29;99130.09;;;39.09;21.10
77192;BME280;66172;48.526;8.078;2023-06-10T09:01:55;99136.53;;;39.41;20.95
77192;BME280;66172;48.526;8.078;2023-06-10T09:04:21;99138.13;;;39.81;20.82
77192;BME280;66172;48.526;8.078;2023-06-10T09:06:49;99124.06;;;40.49;19.79
77192;BME280;66172;48.526;8.078;2023-06-10T09:09:15;99122.47;;;40.14;19.88
77192;BME280;66172;48.526;8.078;2023-06-10T09:11:44;99126.25;;;40.43;19.41
77192;BME280;66172;48.526;8.078;2023-06-10T09:14:10;99124.78;;;40.97;19.39
77192;BME280;66172;48.526;8.078;2023-06-10T09:16:38;99110.97;;;40.54;20.34
77192;BME280;66172;48.526;8.078;2023-06-10T09:19:04;99104.25;;;40.64;19.85
77192;BME280;66172;48.526;8.078;2023-06-10T09:21:34;99107.53;;;40.68;19.79
77192;BME280;66172;48.526;8.078;2023-06-10T09:24:01;99109.94;;;40.77;19.94
77192;BME280;66172;48.526;8.078;2023-06-10T09:26:28;99107.09;;;40.77;19.19
77192;BME280;66172;48.526;8.078;2023-06-10T09:29:05;99108.22;;;41.85;18.14
77192;BME280;66172;48.526;8.078;2023-06-10T09:31:35;99101.72;;;40.95;19.81
77192;BME280;66172;48.526;8.078;2023-06-10T09:34:14;99109.25;;;40.84;19.34
77192;BME280;66172;48.526;8.078;2023-06-10T09:36:41;99094.63;;;40.88;18.86
77192;BME280;66172;48.526;8.078;2023-06-10T09:39:15;99093.38;;;41.87;17.75
77192;BME280;66172;48.526;8.078;2023-06-10T09:41:41;99096.19;;;42.66;17.34
77192;BME280;66172;48.526;8.078;2023-06-10T09:44:19;99100.06;;;42.99;16.58
77192;BME280;66172;48.526;8.078;2023-06-10T09:46:47;99095.72;;;42.04;17.71
77192;BME280;66172;48.526;8.078;2023-06-10T09:49:14;99097.22;;;41.97;17.57
77192;BME280;66172;48.526;8.078;2023-06-10T09:51:53;99088.81;;;41.63;17.38
77192;BME280;66172;48.526;8.078;2023-06-10T09:54:20;99094.94;;;42.31;17.36
77192;BME280;66172;48.526;8.078;2023-06-10T09:56:50;99088.22;;;40.74;18.74
77192;BME280;66172;48.526;8.078;2023-06-10T09:59:29;99091.97;;;41.80;18.43
77192;BME280;66172;48.526;8.078;2023-06-10T10:01:57;99103.06;;;41.14;18.25
77192;BME280;66172;48.526;8.078;2023-06-10T10:04:24;99092.91;;;39.78;19.22
77192;BME280;66172;48.526;8.078;2023-06-10T10:06:50;99091.88;;;40.28;18.55
77192;BME280;66172;48.526;8.078;2023-06-10T10:09:16;99088.94;;;40.88;17.52
77192;BME280;66172;48.526;8.078;2023-06-10T10:11:43;99093.09;;;41.28;18.46
77192;BME280;66172;48.526;8.078;2023-06-10T10:14:10;99083.09;;;41.14;18.35
77192;BME280;66172;48.526;8.078;2023-06-10T10:16:37;99079.44;;;41.55;17.73
77192;BME280;66172;48.526;8.078;2023-06-10T10:19:18;99082.31;;;42.27;17.60
77192;BME280;66172;48.526;8.078;2023-06-10T10:22:01;99089.13;;;40.90;18.13
77192;BME280;66172;48.526;8.078;2023-06-10T10:24:46;99081.31;;;41.32;17.50
77192;BME280;66172;48.526;8.078;2023-06-10T10:27:18;99072.94;;;41.26;17.77
77192;BME280;66172;48.526;8.078;2023-06-10T10:29:48;99084.38;;;41.55;17.42
77192;BME280;66172;48.526;8.078;2023-06-10T10:32:18;99080.50;;;42.09;17.25
77192;BME280;66172;48.526;8.078;2023-06-10T10:34:57;99086.31;;;42.75;16.44
77192;BME280;66172;48.526;8.078;2023-06-10T10:37:26;99083.47;;;43.36;16.00
77192;BME280;66172;48.526;8.078;2023-06-10T10:39:52;99081.50;;;43.91;15.31
77192;BME280;66172;48.526;8.078;2023-06-10T10:42:19;99077.84;;;39.90;16.19
77192;BME280;66172;48.526;8.078;2023-06-10T10:44:45;99070.63;;;39.50;16.93
77192;BME280;66172;48.526;8.078;2023-06-10T10:47:12;99076.13;;;38.53;18.16
77192;BME280;66172;48.526;8.078;2023-06-10T10:49:43;99062.00;;;38.97;16.68
77192;BME280;66172;48.526;8.078;2023-06-10T10:52:11;99071.78;;;36.82;18.75
77192;BME280;66172;48.526;8.078;2023-06-10T10:54:43;99056.25;;;36.53;19.46
77192;BME280;66172;48.526;8.078;2023-06-10T11:02:37;99063.63;;;39.77;19.87
77192;BME280;66172;48.526;8.078;2023-06-10T11:05:07;99061.84;;;39.35;19.68
77192;BME280;66172;48.526;8.078;2023-06-10T11:07:34;99064.38;;;38.93;20.34
77192;BME280;66172;48.526;8.078;2023-06-10T11:10:02;99070.88;;;38.57;19.83
77192;BME280;66172;48.526;8.078;2023-06-10T11:12:50;99057.00;;;38.16;20.94
77192;BME280;66172;48.526;8.078;2023-06-10T11:15:19;99044.50;;;39.07;20.35
77192;BME280;66172;48.526;8.078;2023-06-10T11:20:50;99052.38;;;37.70;20.82
77192;BME280;66172;48.526;8.078;2023-06-10T11:31:32;99046.00;;;40.73;17.55
77192;BME280;66172;48.526;8.078;2023-06-10T11:34:05;99049.69;;;40.60;17.39
77192;BME280;66172;48.526;8.078;2023-06-10T11:36:33;99053.19;;;40.53;17.43
77192;BME280;66172;48.526;8.078;2023-06-10T11:39:01;99042.56;;;38.14;19.99
77192;BME280;66172;48.526;8.078;2023-06-10T11:41:29;99041.56;;;39.25;19.68
77192;BME280;66172;48.526;8.078;2023-06-10T11:44:00;99039.53;;;39.39;19.03
77192;BME280;66172;48.526;8.078;2023-06-10T11:46:26;99044.03;;;39.74;19.17
77192;BME280;66172;48.526;8.078;2023-06-10T11:48:54;99038.72;;;40.51;18.42
77192;BME280;66172;48.526;8.078;2023-06-10T11:51:20;99042.44;;;40.25;18.69
77192;BME280;66172;48.526;8.078;2023-06-10T11:53:49;99025.94;;;40.65;17.50
77192;BME280;66172;48.526;8.078;2023-06-10T11:56:22;99035.94;;;41.21;16.84
77192;BME280;66172;48.526;8.078;2023-06-10T11:58:53;99035.81;;;38.67;17.21
77192;BME280;66172;48.526;8.078;2023-06-10T12:01:21;99028.50;;;39.04;17.41
77192;BME280;66172;48.526;8.078;2023-06-10T12:03:47;99027.72;;;38.58;17.78
77192;BME280;66172;48.526;8.078;2023-06-10T12:06:13;99020.13;;;36.94;18.57
77192;BME280;66172;48.526;8.078;2023-06-10T12:08:43;99025.09;;;35.38;19.90
77192;BME280;66172;48.526;8.078;2023-06-10T12:11:09;99022.25;;;37.18;19.53
77192;BME280;66172;48.526;8.078;2023-06-10T12:13:35;99015.13;;;37.30;18.78
77192;BME280;66172;48.526;8.078;2023-06-10T12:16:08;99018.53;;;37.53;18.25
77192;BME280;66172;48.526;8.078;2023-06-10T12:18:35;99019.00;;;37.09;19.10
77192;BME280;66172;48.526;8.078;2023-06-10T12:21:01;99016.06;;;33.58;22.86
77192;BME280;66172;48.526;8.078;2023-06-10T12:23:26;99018.34;;;31.77;25.08
77192;BME280;66172;48.526;8.078;2023-06-10T12:25:54;99018.09;;;32.01;25.44
77192;BME280;66172;48.526;8.078;2023-06-10T12:28:24;99008.69;;;32.87;24.05
77192;BME280;66172;48.526;8.078;2023-06-10T12:30:50;99004.78;;;32.47;24.04
77192;BME280;66172;48.526;8.078;2023-06-10T12:33:20;99008.41;;;32.28;24.53
77192;BME280;66172;48.526;8.078;2023-06-10T12:35:50;99004.84;;;32.84;24.08
77192;BME280;66172;48.526;8.078;2023-06-10T12:38:24;99006.44;;;33.28;22.87
77192;BME280;66172;48.526;8.078;2023-06-10T12:40:50;99001.44;;;32.49;25.05
77192;BME280;66172;48.526;8.078;2023-06-10T12:43:20;98999.97;;;32.28;25.15
77192;BME280;66172;48.526;8.078;2023-06-10T12:45:46;98999.50;;;33.29;23.42
77192;BME280;66172;48.526;8.078;2023-06-10T12:48:23;98993.91;;;32.97;23.68
77192;BME280;66172;48.526;8.078;2023-06-10T12:50:56;99000.69;;;33.11;23.75
77192;BME280;66172;48.526;8.078;2023-06-10T12:53:23;98995.16;;;32.91;23.14
77192;BME280;66172;48.526;8.078;2023-06-10T12:55:50;98992.03;;;33.62;22.88
77192;BME280;66172;48.526;8.078;2023-06-10T12:58:16;98991.09;;;33.34;23.47
77192;BME280;66172;48.526;8.078;2023-06-10T13:00:42;98989.22;;;33.68;23.33
77192;BME280;66172;48.526;8.078;2023-06-10T13:03:09;98988.53;;;33.36;23.61
77192;BME280;66172;48.526;8.078;2023-06-10T13:05:36;98978.75;;;33.74;23.33
77192;BME280;66172;48.526;8.078;2023-06-10T13:08:07;98974.94;;;33.94;22.88
77192;BME280;66172;48.526;8.078;2023-06-10T13:10:36;98982.50;;;32.75;23.78
77192;BME280;66172;48.526;8.078;2023-06-10T13:13:03;98962.91;;;33.34;23.50
77192;BME280;66172;48.526;8.078;2023-06-10T13:15:32;98971.00;;;32.79;24.10
77192;BME280;66172;48.526;8.078;2023-06-10T13:18:03;98972.94;;;32.36;24.58
77192;BME280;66172;48.526;8.078;2023-06-10T13:20:29;98958.31;;;32.63;24.94